Time;durP1;ratioP1;P1;durP2;ratioP2;P2;SDS_P1;SDS_P2;PMS_P1;PMS_P2;Temp;Humidity;BMP_temperature;BMP_pressure;BME280_temperature;BME280_humidity;BME280_pressure;Samples;Min_cycle;Max_cycle;Signal;HPM_P1;HPM_P2
2022/09/22 00:01:20;;;;;;;3.95;3.65;;;7.90;99.90;;;;;;6238546;22;20234;-79
2022/09/22 00:04:11;;;;;;;5.10;4.45;;;7.80;99.90;;;;;;6232571;23;20938;-80
2022/09/22 00:06:42;;;;;;;4.97;4.47;;;7.70;99.90;;;;;;6231313;22;20201;-80
2022/09/22 00:09:11;;;;;;;4.25;3.95;;;7.70;99.90;;;;;;6234357;23;20192;-80
2022/09/22 00:11:41;;;;;;;4.65;4.15;;;7.60;99.90;;;;;;6239129;22;20239;-80
2022/09/22 00:14:10;;;;;;;5.20;4.70;;;7.60;99.90;;;;;;6233593;22;20659;-79
2022/09/22 00:16:39;;;;;;;4.50;4.10;;;7.60;99.90;;;;;;6228433;23;20264;-79
2022/09/22 00:19:09;;;;;;;4.72;4.30;;;7.60;99.90;;;;;;6230906;23;20248;-78
2022/09/22 00:21:36;;;;;;;4.72;4.32;;;7.60;99.90;;;;;;6236516;22;20281;-79
2022/09/22 00:24:05;;;;;;;5.03;4.50;;;7.60;99.90;;;;;;6245905;22;20546;-79
2022/09/22 00:26:33;;;;;;;4.70;4.30;;;7.60;99.90;;;;;;6252794;22;20247;-79
2022/09/22 00:29:01;;;;;;;5.75;4.18;;;7.70;99.90;;;;;;6239013;22;20268;-80
2022/09/22 00:31:29;;;;;;;4.43;4.07;;;7.70;99.90;;;;;;6221532;23;20733;-79
2022/09/22 00:33:56;;;;;;;4.60;4.20;;;7.70;99.90;;;;;;6226728;22;20648;-80
2022/09/22 00:36:27;;;;;;;4.38;4.00;;;7.70;99.90;;;;;;6248329;22;20607;-79
2022/09/22 00:38:55;;;;;;;5.18;4.18;;;7.70;99.90;;;;;;6241693;22;20204;-79
2022/09/22 00:41:26;;;;;;;3.95;3.65;;;7.70;99.90;;;;;;6235149;22;20295;-79
2022/09/22 00:44:32;;;;;;;4.25;3.85;;;7.70;99.90;;;;;;6228351;23;20181;-80
2022/09/22 00:47:06;;;;;;;4.20;3.80;;;7.70;99.90;;;;;;6235255;22;20197;-79
2022/09/22 00:49:39;;;;;;;4.68;3.60;;;7.60;99.90;;;;;;6235999;23;20269;-79
2022/09/22 00:52:09;;;;;;;4.18;3.53;;;7.70;99.90;;;;;;6262585;22;20235;-79
2022/09/22 00:54:37;;;;;;;4.30;3.90;;;7.60;99.90;;;;;;6254180;22;20180;-79
2022/09/22 00:57:09;;;;;;;4.30;3.95;;;7.70;99.90;;;;;;6238444;22;20603;-79
2022/09/22 00:59:37;;;;;;;4.68;4.28;;;7.70;99.90;;;;;;6244920;22;20265;-79
2022/09/22 01:02:04;;;;;;;4.78;4.38;;;7.70;99.90;;;;;;6237431;22;20288;-79
2022/09/22 01:04:31;;;;;;;4.30;4.00;;;7.70;99.90;;;;;;6235761;22;20245;-79
2022/09/22 01:06:59;;;;;;;4.53;4.13;;;7.60;99.90;;;;;;6251882;22;20702;-79
2022/09/22 01:09:28;;;;;;;4.75;4.35;;;7.60;99.90;;;;;;6233798;22;20180;-79
2022/09/22 01:11:55;;;;;;;5.10;3.83;;;7.60;99.90;;;;;;6230621;22;20288;-79
2022/09/22 01:14:33;;;;;;;4.25;3.95;;;7.60;99.90;;;;;;6242878;22;20221;-79
2022/09/22 01:17:09;;;;;;;4.10;3.80;;;7.60;99.90;;;;;;6253659;22;20183;-79
2022/09/22 01:20:30;;;;;;;3.65;3.33;;;7.70;99.90;;;;;;6256150;22;20215;-79
2022/09/22 01:23:33;;;;;;;4.13;3.83;;;7.70;99.90;;;;;;6105319;23;20703;-79
2022/09/22 01:26:18;;;;;;;4.78;4.20;;;7.80;99.90;;;;;;6255451;22;20207;-79
2022/09/22 01:29:17;;;;;;;4.95;4.55;;;7.70;99.90;;;;;;6240075;22;20265;-80
2022/09/22 01:31:52;;;;;;;4.53;4.13;;;7.80;99.90;;;;;;6236361;22;20205;-80
2022/09/22 01:34:27;;;;;;;5.07;4.68;;;7.70;99.90;;;;;;6234325;22;20658;-80
2022/09/22 01:37:05;;;;;;;5.22;4.78;;;7.70;99.90;;;;;;6237721;22;20620;-79
2022/09/22 01:39:37;;;;;;;5.40;4.90;;;7.70;99.90;;;;;;6244759;22;20180;-79
2022/09/22 01:42:10;;;;;;;5.22;4.70;;;7.60;99.90;;;;;;6229628;22;20202;-79
2022/09/22 01:44:44;;;;;;;4.78;4.38;;;7.60;99.90;;;;;;6237474;23;20928;-79
2022/09/22 01:47:18;;;;;;;4.28;3.97;;;7.50;99.90;;;;;;6237334;22;20616;-79
2022/09/22 01:49:51;;;;;;;4.72;4.32;;;7.50;99.90;;;;;;6257532;22;20192;-79
2022/09/22 01:52:22;;;;;;;5.03;4.57;;;7.40;99.90;;;;;;6246540;22;20209;-79
2022/09/22 01:54:54;;;;;;;4.85;4.32;;;7.40;99.90;;;;;;6245570;22;20212;-79
2022/09/22 01:57:29;;;;;;;4.75;4.43;;;7.40;99.90;;;;;;6236240;22;20308;-79
2022/09/22 02:00:04;;;;;;;4.72;4.32;;;7.40;99.90;;;;;;6236667;22;20203;-79
2022/09/22 02:02:37;;;;;;;5.50;5.05;;;7.40;99.90;;;;;;6236033;22;20908;-79
2022/09/22 02:05:09;;;;;;;6.70;5.15;;;7.40;99.90;;;;;;6228949;22;20243;-79
2022/09/22 02:07:40;;;;;;;5.03;4.53;;;7.40;99.90;;;;;;6236616;22;20251;-79
2022/09/22 02:10:12;;;;;;;4.43;4.13;;;7.40;99.90;;;;;;6239774;22;20273;-79
2022/09/22 02:12:39;;;;;;;5.22;4.82;;;7.30;99.90;;;;;;6245376;22;20204;-79
2022/09/22 02:15:58;;;;;;;5.25;4.75;;;7.30;99.90;;;;;;6226765;23;20190;-79
2022/09/22 02:18:01;;;;;;;4.50;4.20;;;7.30;99.90;;;;;;6226364;22;20185;-79
2022/09/22 02:20:28;;;;;;;5.60;4.30;;;7.30;99.90;;;;;;6221880;23;20178;-79
2022/09/22 02:22:56;;;;;;;5.78;4.15;;;7.30;99.90;;;;;;6224973;22;20206;-80
2022/09/22 02:25:23;;;;;;;4.57;4.22;;;7.40;99.90;;;;;;6231374;22;20220;-80
2022/09/22 02:27:54;;;;;;;4.82;4.40;;;7.40;99.90;;;;;;6236387;22;20635;-80
2022/09/22 02:30:22;;;;;;;4.60;4.20;;;7.40;99.90;;;;;;6237422;22;20212;-79
2022/09/22 02:32:51;;;;;;;4.65;4.25;;;7.30;99.90;;;;;;6237466;22;20226;-79
2022/09/22 02:35:20;;;;;;;4.97;4.10;;;7.40;99.90;;;;;;6230702;22;20209;-79
2022/09/22 02:37:53;;;;;;;4.93;4.53;;;7.40;99.90;;;;;;6237234;22;20197;-79
2022/09/22 02:40:28;;;;;;;4.50;4.20;;;7.40;99.90;;;;;;6234021;22;20706;-79
2022/09/22 02:43:01;;;;;;;3.88;3.58;;;7.40;99.90;;;;;;6238018;23;20227;-79
2022/09/22 02:45:31;;;;;;;4.80;4.40;;;7.30;99.90;;;;;;6237712;22;20189;-78
2022/09/22 02:48:02;;;;;;;4.55;4.15;;;7.30;99.90;;;;;;6233408;22;20931;-79
2022/09/22 02:50:32;;;;;;;4.68;4.30;;;7.30;99.90;;;;;;6234209;22;20223;-80
2022/09/22 02:53:04;;;;;;;4.40;4.00;;;7.30;99.90;;;;;;6244552;22;20187;-79
2022/09/22 02:55:31;;;;;;;5.03;4.55;;;7.30;99.90;;;;;;6252385;22;20272;-78
2022/09/22 02:57:58;;;;;;;4.45;4.07;;;7.30;99.90;;;;;;6256053;22;20216;-79
2022/09/22 03:00:25;;;;;;;5.00;4.50;;;7.30;99.90;;;;;;6235218;22;20206;-79
2022/09/22 03:02:52;;;;;;;4.82;4.45;;;7.40;99.90;;;;;;6248396;22;20263;-79
2022/09/22 03:05:19;;;;;;;4.50;4.10;;;7.30;99.90;;;;;;6239924;22;20659;-79
2022/09/22 03:07:48;;;;;;;4.30;4.00;;;7.30;99.90;;;;;;6238070;22;20184;-79
2022/09/22 03:10:15;;;;;;;4.30;3.72;;;7.20;99.90;;;;;;6236372;23;20273;-79
2022/09/22 03:12:42;;;;;;;4.53;4.22;;;7.30;99.90;;;;;;6240010;22;20606;-79
2022/09/22 03:15:10;;;;;;;4.80;4.40;;;7.20;99.90;;;;;;6244957;22;20185;-79
2022/09/22 03:17:38;;;;;;;4.55;4.05;;;7.30;99.90;;;;;;6232960;22;20490;-79
2022/09/22 03:20:08;;;;;;;4.45;4.05;;;7.20;99.90;;;;;;6220380;22;20261;-79
2022/09/22 03:22:35;;;;;;;4.63;4.25;;;7.20;99.90;;;;;;6232634;22;20196;-79
2022/09/22 03:25:04;;;;;;;4.40;4.10;;;7.30;99.90;;;;;;6235794;22;20209;-79
2022/09/22 03:27:31;;;;;;;4.35;3.95;;;7.20;99.90;;;;;;6218334;22;20239;-79
2022/09/22 03:29:58;;;;;;;4.50;4.00;;;7.20;99.90;;;;;;6235440;22;20261;-79
2022/09/22 03:32:25;;;;;;;5.00;4.50;;;7.20;99.90;;;;;;6258365;22;20253;-79
2022/09/22 03:34:52;;;;;;;4.65;4.22;;;7.20;99.90;;;;;;6251290;22;20269;-79
2022/09/22 03:37:19;;;;;;;4.75;4.35;;;7.10;99.90;;;;;;6236381;23;20643;-80
2022/09/22 03:39:46;;;;;;;4.72;4.32;;;7.10;99.90;;;;;;6246065;22;20268;-79
2022/09/22 03:42:14;;;;;;;4.90;4.50;;;7.00;99.90;;;;;;6241503;22;20235;-79
2022/09/22 03:44:41;;;;;;;5.30;4.90;;;7.00;99.90;;;;;;6233896;22;20219;-80
2022/09/22 03:47:08;;;;;;;5.50;5.00;;;6.90;99.90;;;;;;6244721;22;20295;-79
2022/09/22 03:49:36;;;;;;;5.80;4.80;;;7.00;99.90;;;;;;6245697;22;20654;-79
2022/09/22 03:52:03;;;;;;;5.03;4.53;;;6.90;99.90;;;;;;6231590;22;20227;-79
2022/09/22 03:54:31;;;;;;;4.82;4.43;;;6.80;99.90;;;;;;6232251;22;20181;-79
2022/09/22 03:56:58;;;;;;;5.70;5.10;;;6.80;99.90;;;;;;6249188;22;20188;-79
2022/09/22 03:59:26;;;;;;;5.72;5.10;;;6.80;99.90;;;;;;6238088;23;20220;-79
2022/09/22 04:01:53;;;;;;;5.05;4.60;;;6.80;99.90;;;;;;6233962;22;20295;-79
2022/09/22 04:04:20;;;;;;;5.20;4.70;;;6.80;99.90;;;;;;6238290;22;20181;-79
2022/09/22 04:06:47;;;;;;;5.43;4.93;;;6.70;99.90;;;;;;6233929;23;20292;-79
2022/09/22 04:09:16;;;;;;;5.82;5.22;;;6.60;99.90;;;;;;6244960;22;20197;-76
2022/09/22 04:11:43;;;;;;;6.07;5.25;;;6.60;99.90;;;;;;6228375;22;21196;-79
2022/09/22 04:14:10;;;;;;;6.43;5.95;;;6.40;99.90;;;;;;6231896;22;20264;-79
2022/09/22 04:16:41;;;;;;;5.50;5.10;;;6.40;99.90;;;;;;6235946;23;20185;-78
2022/09/22 04:19:08;;;;;;;6.00;5.50;;;6.30;99.90;;;;;;6235701;22;20192;-77
2022/09/22 04:21:36;;;;;;;6.45;5.85;;;6.20;99.90;;;;;;6233083;22;20682;-78
2022/09/22 04:24:07;;;;;;;6.22;5.72;;;6.20;99.90;;;;;;6234462;22;20654;-78
2022/09/22 04:26:34;;;;;;;6.22;5.63;;;6.10;99.90;;;;;;6229843;22;20288;-79
2022/09/22 04:29:01;;;;;;;6.50;5.90;;;6.10;99.90;;;;;;6233538;23;20196;-78
2022/09/22 04:31:28;;;;;;;6.10;5.60;;;6.10;99.90;;;;;;6236480;22;20287;-79
2022/09/22 04:33:56;;;;;;;6.25;5.70;;;6.10;99.90;;;;;;6233550;22;20302;-78
2022/09/22 04:36:24;;;;;;;5.75;5.25;;;6.10;99.90;;;;;;6235732;22;20655;-79
2022/09/22 04:38:51;;;;;;;6.45;5.95;;;6.00;99.90;;;;;;6228699;22;20212;-78
2022/09/22 04:41:18;;;;;;;7.00;6.30;;;6.10;99.90;;;;;;6231961;22;20206;-78
2022/09/22 04:43:45;;;;;;;7.20;6.60;;;6.10;99.90;;;;;;6230105;22;20315;-69
2022/09/22 04:46:12;;;;;;;7.13;6.60;;;6.10;99.90;;;;;;6235830;22;20209;-69
2022/09/22 04:48:39;;;;;;;6.70;6.20;;;6.10;99.90;;;;;;6236445;22;20815;-69
2022/09/22 04:51:07;;;;;;;6.70;6.20;;;6.10;99.90;;;;;;6237355;22;20258;-69
2022/09/22 04:53:34;;;;;;;6.20;5.65;;;6.10;99.90;;;;;;6234569;22;20183;-71
2022/09/22 04:56:02;;;;;;;6.00;5.50;;;6.10;99.90;;;;;;6231437;22;20272;-79
2022/09/22 04:58:30;;;;;;;6.70;6.20;;;6.10;99.90;;;;;;6230519;22;20603;-78
2022/09/22 05:01:02;;;;;;;6.00;5.60;;;6.10;99.90;;;;;;6238904;22;20211;-78
2022/09/22 05:03:29;;;;;;;5.90;5.40;;;6.10;99.90;;;;;;6234140;22;20189;-79
2022/09/22 05:05:56;;;;;;;5.95;5.40;;;6.10;99.90;;;;;;6236622;22;20210;-78
2022/09/22 05:08:24;;;;;;;5.50;5.10;;;6.10;99.90;;;;;;6236252;23;20259;-78
2022/09/22 05:10:52;;;;;;;5.70;5.20;;;6.00;99.90;;;;;;6235301;22;20279;-78
2022/09/22 05:13:19;;;;;;;7.53;5.88;;;6.00;99.90;;;;;;6248930;22;20183;-78
2022/09/22 05:15:46;;;;;;;6.15;5.65;;;6.00;99.90;;;;;;6237365;22;20185;-78
2022/09/22 05:18:13;;;;;;;6.28;5.80;;;5.90;99.90;;;;;;6239286;22;20228;-78
2022/09/22 05:20:40;;;;;;;6.00;5.50;;;5.90;99.90;;;;;;6237897;22;20304;-78
2022/09/22 05:23:07;;;;;;;5.65;5.15;;;5.90;99.90;;;;;;6233840;22;21959;-78
2022/09/22 05:25:35;;;;;;;6.63;5.57;;;5.80;99.90;;;;;;6237488;22;20185;-79
2022/09/22 05:28:02;;;;;;;6.18;5.63;;;5.80;99.90;;;;;;6241149;22;20593;-79
2022/09/22 05:30:30;;;;;;;6.47;5.60;;;5.80;99.90;;;;;;6237011;22;20277;-78
2022/09/22 05:32:57;;;;;;;6.00;5.50;;;5.80;99.90;;;;;;6237086;22;20182;-79
2022/09/22 05:35:25;;;;;;;6.13;5.63;;;5.80;99.90;;;;;;6244133;22;20211;-79
2022/09/22 05:37:53;;;;;;;8.02;5.90;;;5.70;99.90;;;;;;6222426;22;20189;-78
2022/09/22 05:40:22;;;;;;;6.38;5.82;;;5.70;99.90;;;;;;6229806;22;20207;-79
2022/09/22 05:42:52;;;;;;;6.38;5.88;;;5.70;99.90;;;;;;6236918;22;20180;-81
2022/09/22 05:45:20;;;;;;;6.63;6.13;;;5.70;99.90;;;;;;6233152;22;20559;-79
2022/09/22 05:47:48;;;;;;;6.05;5.55;;;5.70;99.90;;;;;;6235101;23;20209;-79
2022/09/22 05:50:16;;;;;;;7.40;5.50;;;5.70;99.90;;;;;;6236549;22;20408;-79
2022/09/22 05:52:44;;;;;;;6.45;5.95;;;5.70;99.90;;;;;;6234918;22;20189;-79
2022/09/22 05:55:12;;;;;;;6.03;5.43;;;5.80;99.90;;;;;;6237392;22;20589;-79
2022/09/22 05:57:39;;;;;;;5.38;4.65;;;5.90;99.90;;;;;;6233166;22;20192;-78
2022/09/22 06:00:10;;;;;;;5.45;4.93;;;6.00;99.90;;;;;;6234635;22;20304;-79
2022/09/22 06:02:37;;;;;;;4.93;4.53;;;6.10;99.90;;;;;;6230288;22;20272;-79
2022/09/22 06:05:04;;;;;;;4.53;4.20;;;6.20;99.90;;;;;;6236528;22;20181;-78
2022/09/22 06:07:31;;;;;;;4.60;4.20;;;6.40;99.90;;;;;;6236721;23;20213;-78
2022/09/22 06:09:58;;;;;;;5.18;4.63;;;6.60;99.90;;;;;;6237809;22;20770;-79
2022/09/22 06:12:25;;;;;;;5.18;4.78;;;6.80;99.90;;;;;;6214948;22;20184;-79
2022/09/22 06:14:52;;;;;;;5.05;4.38;;;7.10;99.90;;;;;;6238643;22;20194;-79
2022/09/22 06:17:22;;;;;;;5.10;4.70;;;7.40;99.90;;;;;;6238040;23;20611;-78
2022/09/22 06:19:49;;;;;;;5.05;4.60;;;7.60;99.90;;;;;;6236601;22;20679;-78
2022/09/22 06:22:16;;;;;;;4.20;3.90;;;7.80;99.90;;;;;;6236759;22;20191;-78
2022/09/22 06:24:44;;;;;;;5.35;4.55;;;8.10;99.90;;;;;;6223572;22;20765;-79
2022/09/22 06:27:10;;;;;;;4.50;4.20;;;8.40;99.90;;;;;;6239782;22;20249;-78
2022/09/22 06:29:37;;;;;;;4.45;4.03;;;8.80;99.90;;;;;;6234705;22;20180;-78
2022/09/22 06:32:07;;;;;;;8.25;4.70;;;9.00;99.90;;;;;;6243399;22;20199;-78
2022/09/22 06:34:36;;;;;;;4.72;4.32;;;9.20;99.90;;;;;;6231524;22;20186;-78
2022/09/22 06:37:06;;;;;;;6.00;3.83;;;9.40;99.90;;;;;;6234332;22;20643;-79
2022/09/22 06:39:35;;;;;;;8.45;5.13;;;9.60;99.90;;;;;;6236884;22;20510;-78
2022/09/22 06:42:01;;;;;;;4.35;3.90;;;9.70;99.90;;;;;;6235275;23;20195;-80
2022/09/22 06:44:30;;;;;;;6.05;4.43;;;10.00;99.90;;;;;;6230223;22;20192;-78
2022/09/22 06:46:57;;;;;;;7.50;4.75;;;10.20;99.90;;;;;;6233457;22;20667;-78
2022/09/22 06:49:24;;;;;;;4.40;4.10;;;10.40;99.90;;;;;;6237642;22;20187;-78
2022/09/22 06:51:53;;;;;;;4.95;4.25;;;10.60;99.90;;;;;;6246353;22;20185;-79
2022/09/22 06:54:21;;;;;;;5.60;4.40;;;10.80;99.90;;;;;;6236461;23;20232;-79
2022/09/22 06:56:48;;;;;;;5.25;4.47;;;11.00;99.90;;;;;;6233423;22;20189;-78
2022/09/22 06:59:15;;;;;;;6.88;4.20;;;11.30;99.90;;;;;;6237337;22;20594;-79
2022/09/22 07:01:44;;;;;;;4.63;4.22;;;11.60;99.90;;;;;;6231898;22;20289;-78
2022/09/22 07:04:12;;;;;;;3.90;3.60;;;12.00;99.90;;;;;;6236418;22;20185;-78
2022/09/22 07:06:39;;;;;;;4.37;4.07;;;12.50;99.90;;;;;;6247061;22;20474;-79
2022/09/22 07:09:08;;;;;;;4.37;3.97;;;13.00;99.90;;;;;;6236822;22;20465;-79
2022/09/22 07:11:36;;;;;;;4.40;4.10;;;13.60;99.90;;;;;;6238611;22;20461;-79
2022/09/22 07:14:03;;;;;;;4.17;3.80;;;14.10;99.90;;;;;;6238020;23;20474;-78
2022/09/22 07:16:30;;;;;;;4.47;4.07;;;14.40;99.90;;;;;;6235439;22;20460;-78
2022/09/22 07:18:58;;;;;;;4.33;3.93;;;14.60;99.90;;;;;;6220703;22;20430;-79
2022/09/22 07:21:31;;;;;;;4.30;3.90;;;14.80;99.90;;;;;;6238695;22;20461;-79
2022/09/22 07:23:59;;;;;;;3.90;3.60;;;15.20;99.90;;;;;;6223808;22;20515;-78
2022/09/22 07:26:29;;;;;;;3.57;3.17;;;15.60;99.90;;;;;;6231719;22;20440;-79
2022/09/22 07:28:58;;;;;;;4.30;4.00;;;16.00;99.90;;;;;;6226228;22;20462;-78
2022/09/22 07:31:26;;;;;;;3.80;3.50;;;16.20;99.90;;;;;;6221464;22;20552;-79
2022/09/22 07:33:54;;;;;;;3.60;3.30;;;16.20;99.90;;;;;;6227478;22;20806;-79
2022/09/22 07:36:22;;;;;;;6.33;3.30;;;16.00;99.90;;;;;;6240389;22;20453;-79
2022/09/22 07:38:51;;;;;;;4.13;3.70;;;15.70;99.90;;;;;;6224600;23;20438;-79
2022/09/22 07:41:20;;;;;;;4.17;3.80;;;15.50;99.90;;;;;;6238528;22;20442;-78
2022/09/22 07:43:52;;;;;;;3.90;3.60;;;15.50;99.90;;;;;;6236116;23;20441;-78
2022/09/22 07:46:20;;;;;;;3.83;3.53;;;15.50;99.90;;;;;;6230253;23;20437;-78
2022/09/22 07:48:46;;;;;;;5.80;4.40;;;15.50;99.90;;;;;;6250828;22;20541;-79
2022/09/22 07:51:18;;;;;;;5.77;3.80;;;15.70;99.90;;;;;;6267769;22;20528;-78
2022/09/22 07:53:46;;;;;;;4.20;3.80;;;16.00;99.90;;;;;;6234215;22;20516;-78
2022/09/22 07:56:15;;;;;;;4.70;3.70;;;16.10;99.90;;;;;;6240238;22;20506;-78
2022/09/22 07:58:48;;;;;;;4.30;3.90;;;16.20;99.90;;;;;;6249179;22;20468;-78
2022/09/22 08:01:18;;;;;;;6.20;4.47;;;16.20;99.90;;;;;;6239074;23;20445;-78
2022/09/22 08:03:46;;;;;;;4.17;3.87;;;16.00;99.90;;;;;;6236374;23;20466;-78
2022/09/22 08:06:14;;;;;;;4.17;3.87;;;15.90;99.90;;;;;;6240168;23;20434;-78
2022/09/22 08:08:43;;;;;;;5.47;4.50;;;15.80;99.90;;;;;;6238618;23;20568;-78
2022/09/22 08:11:13;;;;;;;4.50;4.10;;;15.90;99.90;;;;;;6239263;22;20451;-78
2022/09/22 08:13:41;;;;;;;5.40;4.30;;;16.20;99.90;;;;;;6236438;23;20430;-78
2022/09/22 08:16:09;;;;;;;3.67;3.37;;;16.70;99.90;;;;;;6240277;23;20418;-78
2022/09/22 08:18:38;;;;;;;3.73;3.43;;;17.10;99.90;;;;;;6238215;22;20504;-78
2022/09/22 08:21:06;;;;;;;4.37;3.97;;;17.50;99.90;;;;;;6244795;22;21075;-79
2022/09/22 08:23:34;;;;;;;4.10;3.70;;;17.60;99.90;;;;;;6242247;22;20514;-79
2022/09/22 08:26:05;;;;;;;4.33;4.03;;;17.70;99.90;;;;;;6234075;22;20440;-78
2022/09/22 08:28:33;;;;;;;5.63;4.10;;;17.90;99.90;;;;;;6240005;23;20457;-79
2022/09/22 08:31:01;;;;;;;3.63;3.30;;;18.00;99.90;;;;;;6213414;22;20463;-78
2022/09/22 08:33:30;;;;;;;3.60;3.30;;;18.10;99.90;;;;;;6232430;23;20448;-79
2022/09/22 08:36:02;;;;;;;4.40;4.10;;;17.80;99.90;;;;;;6235073;22;20464;-78
2022/09/22 08:38:30;;;;;;;3.87;3.50;;;17.80;99.90;;;;;;6210868;23;20419;-78
2022/09/22 08:41:09;;;;;;;3.67;3.37;;;18.00;99.90;;;;;;6237141;23;20533;-78
2022/09/22 08:43:45;;;;;;;3.70;3.40;;;18.30;99.90;;;;;;6236007;22;20438;-78
2022/09/22 08:46:13;;;;;;;3.50;3.20;;;18.40;99.90;;;;;;6243696;22;20510;-78
2022/09/22 08:51:54;;;;;;;3.63;3.33;;;18.20;99.80;;;;;;6244908;22;20975;-78
2022/09/22 08:54:25;;;;;;;2.87;2.67;;;18.00;99.90;;;;;;6222764;23;20438;-79
2022/09/22 08:57:04;;;;;;;2.70;2.50;;;18.00;99.90;;;;;;6239479;23;20447;-78
2022/09/22 08:59:36;;;;;;;2.83;2.63;;;18.10;99.90;;;;;;6237693;22;20521;-78
2022/09/22 09:02:30;;;;;;;2.53;2.33;;;18.10;99.90;;;;;;6239571;22;20559;-79
2022/09/22 09:05:37;;;;;;;2.70;2.50;;;18.20;99.90;;;;;;6240195;22;20822;-78
2022/09/22 09:08:17;;;;;;;2.60;2.40;;;18.00;99.90;;;;;;6180514;23;20533;-78
2022/09/22 09:10:52;;;;;;;3.20;2.93;;;18.20;99.90;;;;;;6231045;22;21311;-78
2022/09/22 09:13:42;;;;;;;2.50;2.33;;;18.50;99.80;;;;;;6227371;23;20513;-78
2022/09/22 09:16:26;;;;;;;3.17;2.40;;;18.70;99.10;;;;;;6238150;23;20424;-78
2022/09/22 09:18:57;;;;;;;2.33;2.13;;;18.90;98.90;;;;;;6224663;22;20907;-79
2022/09/22 09:21:26;;;;;;;2.53;2.33;;;18.80;98.80;;;;;;6239270;23;20489;-78
2022/09/22 09:24:00;;;;;;;2.70;2.50;;;19.10;98.90;;;;;;6237625;23;20503;-78
2022/09/22 09:26:29;;;;;;;5.17;2.30;;;19.30;98.00;;;;;;6228699;23;20421;-79
2022/09/22 09:29:00;;;;;;;2.47;2.27;;;19.60;97.40;;;;;;6236347;23;20864;-79
2022/09/22 09:31:33;;;;;;;3.13;2.17;;;19.80;97.00;;;;;;6239464;23;20916;-78
2022/09/22 09:34:04;;;;;;;2.60;2.40;;;19.70;96.30;;;;;;6232617;22;20452;-79
2022/09/22 09:36:36;;;;;;;2.40;2.20;;;19.80;95.90;;;;;;6238613;22;20948;-78
2022/09/22 09:39:27;;;;;;;2.43;1.97;;;19.60;96.30;;;;;;6242951;22;20447;-78
2022/09/22 09:41:55;;;;;;;2.20;2.00;;;19.60;96.10;;;;;;6236388;22;20441;-78
2022/09/22 09:44:39;;;;;;;2.30;1.80;;;19.90;95.50;;;;;;6235307;23;20919;-79
2022/09/22 09:47:17;;;;;;;2.00;1.80;;;20.30;95.10;;;;;;6235168;22;20430;-79
2022/09/22 09:49:44;;;;;;;2.43;1.80;;;20.20;94.90;;;;;;6233513;22;20481;-79
2022/09/22 09:52:12;;;;;;;1.50;1.40;;;20.20;94.00;;;;;;6238182;23;20564;-79
2022/09/22 09:54:44;;;;;;;1.50;1.40;;;20.20;92.90;;;;;;6238007;23;20428;-79
2022/09/22 09:57:14;;;;;;;2.10;1.20;;;20.00;93.40;;;;;;6238942;23;20432;-79
2022/09/22 10:02:29;;;;;;;1.30;1.20;;;20.40;93.60;;;;;;6235964;23;20573;-79
2022/09/22 10:04:58;;;;;;;1.40;1.27;;;20.30;92.10;;;;;;6218845;22;20976;-79
2022/09/22 10:07:27;;;;;;;1.30;1.10;;;20.00;92.30;;;;;;6236536;22;20491;-79
2022/09/22 10:10:17;;;;;;;1.40;1.30;;;19.90;91.50;;;;;;6229421;22;21168;-78
2022/09/22 10:12:43;;;;;;;2.60;1.30;;;19.70;92.00;;;;;;6226580;22;20440;-79
2022/09/22 10:15:23;;;;;;;1.40;1.20;;;19.80;92.60;;;;;;6233705;22;20462;-79
2022/09/22 10:17:50;;;;;;;1.10;1.00;;;19.80;91.90;;;;;;6225636;23;20437;-79
2022/09/22 10:20:22;;;;;;;1.40;1.20;;;20.00;92.10;;;;;;6233235;22;21031;-79
2022/09/22 10:22:50;;;;;;;2.10;1.40;;;20.50;91.70;;;;;;6236746;22;21375;-79
2022/09/22 10:25:24;;;;;;;1.20;1.10;;;20.90;90.70;;;;;;6240000;22;20478;-79
2022/09/22 10:28:02;;;;;;;1.37;1.27;;;21.30;90.80;;;;;;6240651;22;20463;-79
2022/09/22 10:30:35;;;;;;;2.90;1.40;;;21.30;90.60;;;;;;6236581;22;20536;-79
2022/09/22 10:33:14;;;;;;;1.40;1.30;;;21.10;90.00;;;;;;6239096;23;20432;-79
2022/09/22 10:35:43;;;;;;;1.70;1.50;;;21.00;89.60;;;;;;6233617;22;20853;-79
2022/09/22 10:38:19;;;;;;;1.30;1.20;;;21.00;90.30;;;;;;6231900;22;20437;-79
2022/09/22 10:40:53;;;;;;;1.53;1.43;;;21.30;90.30;;;;;;6221247;22;20532;-78
2022/09/22 10:43:35;;;;;;;2.30;1.50;;;21.90;89.80;;;;;;6215453;23;20435;-78
2022/09/22 10:46:17;;;;;;;1.63;1.27;;;22.10;85.80;;;;;;6224694;22;20454;-78
2022/09/22 10:48:48;;;;;;;1.37;1.27;;;21.80;85.30;;;;;;6213611;23;20461;-78
2022/09/22 10:51:24;;;;;;;1.73;1.10;;;21.70;87.10;;;;;;6145869;22;21621;-78
2022/09/22 10:54:12;;;;;;;1.30;1.20;;;22.00;87.60;;;;;;6066702;22;20433;-78
2022/09/22 10:56:46;;;;;;;1.20;1.10;;;22.40;86.50;;;;;;6238285;23;20512;-78
2022/09/22 10:59:36;;;;;;;1.50;1.20;;;22.70;84.20;;;;;;6227537;22;20449;-79
2022/09/22 11:02:35;;;;;;;1.20;1.10;;;22.70;83.20;;;;;;6215659;22;20449;-78
2022/09/22 11:14:21;;;;;;;2.73;1.30;;;23.30;80.50;;;;;;6230151;23;20543;-78
2022/09/22 11:17:15;;;;;;;1.33;1.20;;;22.80;80.70;;;;;;6209274;22;20434;-79
2022/09/22 11:20:04;;;;;;;1.20;1.10;;;22.40;79.10;;;;;;6222520;22;20478;-78
2022/09/22 11:22:50;;;;;;;1.57;1.30;;;22.40;80.60;;;;;;6238633;22;20426;-79
2022/09/22 11:25:27;;;;;;;1.87;1.20;;;22.50;79.50;;;;;;6247345;22;20494;-78
2022/09/22 11:28:09;;;;;;;2.20;1.40;;;22.30;80.30;;;;;;6238361;22;20509;-78
2022/09/22 11:30:45;;;;;;;1.53;1.43;;;21.50;80.60;;;;;;6229524;22;20442;-78
2022/09/22 11:33:37;;;;;;;1.30;1.20;;;21.70;79.20;;;;;;6231340;22;20519;-79
2022/09/22 11:36:20;;;;;;;2.40;1.23;;;21.90;77.80;;;;;;6224303;22;20517;-78
2022/09/22 11:39:09;;;;;;;3.23;1.07;;;22.30;78.30;;;;;;6241096;22;20461;-78
2022/09/22 11:41:41;;;;;;;1.30;1.20;;;22.20;79.50;;;;;;6236612;23;20442;-78
2022/09/22 11:44:43;;;;;;;1.87;1.30;;;22.20;77.90;;;;;;6236200;22;20430;-78
2022/09/22 11:47:25;;;;;;;1.10;1.00;;;22.60;78.20;;;;;;6238065;22;20488;-79
2022/09/22 11:50:13;;;;;;;1.30;1.20;;;23.10;78.00;;;;;;6234095;22;20470;-79
2022/09/22 11:52:57;;;;;;;1.10;1.00;;;23.30;76.40;;;;;;6238979;23;21017;-78
2022/09/22 11:55:35;;;;;;;1.30;1.10;;;23.70;76.10;;;;;;6230458;22;20490;-78
2022/09/22 11:58:09;;;;;;;1.40;1.30;;;24.20;76.50;;;;;;6234259;22;20457;-79
2022/09/22 12:00:47;;;;;;;1.37;1.10;;;24.30;73.00;;;;;;6218057;23;20469;-78
2022/09/22 12:03:20;;;;;;;1.20;1.07;;;24.00;72.50;;;;;;6228757;22;20446;-79
2022/09/22 12:05:51;;;;;;;1.03;0.90;;;23.80;73.60;;;;;;6226362;22;20883;-78
2022/09/22 12:08:21;;;;;;;1.13;1.03;;;23.80;72.90;;;;;;6219327;22;20979;-78
2022/09/22 12:10:50;;;;;;;1.00;0.90;;;23.40;70.70;;;;;;6234017;22;20948;-78
2022/09/22 12:13:20;;;;;;;1.60;1.30;;;23.20;72.10;;;;;;6220714;22;20426;-78
2022/09/22 12:15:58;;;;;;;1.17;0.90;;;23.40;72.90;;;;;;6234157;22;20433;-78
2022/09/22 12:18:34;;;;;;;1.87;1.10;;;23.30;71.40;;;;;;6220488;22;20513;-78
2022/09/22 12:21:06;;;;;;;2.60;1.20;;;23.40;72.40;;;;;;6230807;22;20462;-79
2022/09/22 12:23:38;;;;;;;1.63;1.00;;;23.50;72.00;;;;;;6234359;22;21151;-79
2022/09/22 12:26:08;;;;;;;1.10;1.00;;;23.40;73.40;;;;;;6234311;23;20422;-79
2022/09/22 12:28:41;;;;;;;1.73;1.03;;;23.60;73.80;;;;;;6229206;23;20462;-79
2022/09/22 12:31:11;;;;;;;2.07;1.10;;;24.20;72.70;;;;;;6219659;22;20603;-80
2022/09/22 12:33:46;;;;;;;3.50;1.10;;;24.60;69.00;;;;;;6240018;22;20468;-79
2022/09/22 12:36:15;;;;;;;1.20;1.10;;;24.60;67.90;;;;;;6231228;22;20443;-79
2022/09/22 12:38:43;;;;;;;1.20;1.00;;;24.90;69.80;;;;;;6240129;23;20543;-78
2022/09/22 12:41:17;;;;;;;1.77;1.23;;;25.30;66.60;;;;;;6221424;23;20444;-79
2022/09/22 12:43:46;;;;;;;0.83;0.83;;;25.10;66.10;;;;;;6231259;22;20517;-73
2022/09/22 12:46:23;;;;;;;1.40;1.13;;;25.00;66.60;;;;;;6244023;22;20443;-73
2022/09/22 12:48:52;;;;;;;1.13;1.03;;;24.80;65.10;;;;;;6222116;22;20473;-71
2022/09/22 12:51:32;;;;;;;1.30;1.00;;;24.90;66.30;;;;;;6239723;22;20788;-72
2022/09/22 12:54:28;;;;;;;1.10;1.00;;;25.00;67.40;;;;;;6230344;22;20434;-71
2022/09/22 12:56:58;;;;;;;1.00;0.90;;;25.00;65.20;;;;;;6233653;22;20929;-70
2022/09/22 12:59:58;;;;;;;1.33;1.00;;;24.80;66.70;;;;;;6242616;22;20453;-70
2022/09/22 13:02:30;;;;;;;1.30;1.20;;;24.40;65.80;;;;;;6221884;22;20443;-71
2022/09/22 13:05:34;;;;;;;1.10;1.00;;;23.70;66.00;;;;;;6236419;22;20530;-70
2022/09/22 13:08:02;;;;;;;1.10;1.00;;;23.30;66.30;;;;;;6228519;22;20453;-71
2022/09/22 13:10:55;;;;;;;1.23;0.93;;;23.30;68.70;;;;;;6235404;22;20518;-79
2022/09/22 13:13:41;;;;;;;1.53;1.10;;;23.20;68.40;;;;;;6199752;22;20443;-79
2022/09/22 13:16:36;;;;;;;1.77;1.20;;;23.30;68.30;;;;;;6217637;22;20849;-78
2022/09/22 13:19:08;;;;;;;1.43;1.10;;;23.50;66.90;;;;;;6218209;22;20967;-79
2022/09/22 13:21:38;;;;;;;1.20;1.10;;;23.50;66.80;;;;;;6232640;22;20430;-78
2022/09/22 13:24:07;;;;;;;1.20;1.00;;;23.40;66.70;;;;;;6219003;22;20807;-79
2022/09/22 13:26:35;;;;;;;1.30;1.20;;;23.20;68.20;;;;;;6232293;22;21184;-79
2022/09/22 13:29:09;;;;;;;1.23;1.13;;;23.40;67.70;;;;;;6232370;22;20489;-79
2022/09/22 13:31:38;;;;;;;1.10;1.00;;;23.80;68.40;;;;;;6236912;22;20498;-80
2022/09/22 13:34:26;;;;;;;1.30;1.20;;;23.90;65.40;;;;;;6227881;22;20437;-79